Ashdown, AR (71822)

9:24 AM CST on February 21, 2017 (GMT -0600)
Ashdown, AR - Robin St | | Change Station

Elev 335 ft 33.66 °N, 94.14 °W | Updated 12 minutes ago

Overcast
Overcast
55.7 °F
Feels Like 55.7 °F
N
2.0
Wind Variable Wind from SW
Gusts 6.0 mph

Today
High -- | Low -- °F
--% Chance of Precip.
Yesterday
High -- | Low -- °F
Precip. -- in
Pressure 29.91 in
Visibility 5.0 miles
Clouds Overcast 500 ft
Dew Point 54 °F
Humidity 95%
Rainfall 0.02 in
Snow Depth Not available.
6:54 AM 6:06 PM
Waning Crescent, 24% visible
METAR KTXK 211453Z 25009KT 5SM -RA BR OVC005 13/13 A2992 RMK AO2 SLP129 P0004 60055 T01330133 51004
Pressure 29.91 in
Visibility 5.0 miles
Clouds Overcast 500 ft
Dew Point 54 °F
Humidity 95%
Rainfall 0.02 in
Snow Depth Not available.
6:54 AM 6:06 PM
Waning Crescent, 24% visible
METAR KTXK 211453Z 25009KT 5SM -RA BR OVC005 13/13 A2992 RMK AO2 SLP129 P0004 60055 T01330133 51004

Get Your Daily Forecast Email!

Thanks for signing up!

Be on the lookout for a verification email in your inbox.

You'll start receiving the daily forecast at 8 AM.

×

10-Day Weather Forecast

Almanac

Astronomy

Feb. 21, 2017 Rise Set
Actual Time
Civil Twilight
Nautical Twilight
Astronomical Twilight
Moon
Length of Visible Light
Length of Day
Tomorrow will be .
, % of the Moon is Illuminated

Today's Extremes

State Highs State Lows

Community

WunderPhotos

Upload Photos

1,962,540 photos uploaded!

WunderBlog® & News

Nearby

Air Quality

  Air Quality AQ Index Pollutant
Not available.

Snow Depth

Station Depth Elevation

Earthquake Activity

City Distance Mag. Time & Date
Minimum magnitude displayed is 2.5.

Coastal Water Temperatures

Place Temperature

Stations

Nearby Weather Stations

Station Location Temp. Windchill Dew Point Humidity Wind Precip. Elev Updated Type
                   

Watches & Warnings

There are currently no watches in effect.